createdAt,value
2018-01-15T00:01:07.811Z,0.00
2018-01-15T00:02:39.230Z,0.00
2018-01-15T00:04:11.048Z,0.00
2018-01-15T00:05:42.866Z,0.00
2018-01-15T00:07:14.685Z,0.00
2018-01-15T00:08:46.504Z,0.00
2018-01-15T00:10:18.322Z,0.00
2018-01-15T00:11:50.142Z,0.00
2018-01-15T00:13:21.961Z,0.00
2018-01-15T00:14:53.779Z,0.00
2018-01-15T00:16:25.598Z,0.00
2018-01-15T00:17:57.416Z,0.00
2018-01-15T00:19:29.335Z,0.00
2018-01-15T00:21:01.059Z,0.00
2018-01-15T00:22:32.872Z,0.00
2018-01-15T00:24:04.708Z,0.00
2018-01-15T00:25:36.511Z,0.00
2018-01-15T00:27:08.328Z,0.00
2018-01-15T00:28:40.145Z,0.00
2018-01-15T00:30:11.964Z,0.00
2018-01-15T00:31:43.783Z,0.00
2018-01-15T00:33:15.606Z,0.00
2018-01-15T00:34:47.419Z,0.00
2018-01-15T00:36:19.244Z,0.00
2018-01-15T00:37:51.156Z,0.00
2018-01-15T00:39:22.875Z,0.00
2018-01-15T00:40:54.694Z,0.00
2018-01-15T00:42:26.512Z,0.00
2018-01-15T00:43:58.330Z,0.00
2018-01-15T00:45:30.150Z,0.00
2018-01-15T00:47:01.968Z,0.00
2018-01-15T00:48:33.787Z,0.00
2018-01-15T00:50:05.606Z,0.00
2018-01-15T00:51:37.423Z,0.00
2018-01-15T00:53:09.242Z,0.00
2018-01-15T00:54:41.061Z,0.00
2018-01-15T00:56:12.979Z,0.00
2018-01-15T00:57:44.698Z,0.00
2018-01-15T00:59:16.514Z,0.00
2018-01-15T01:00:48.332Z,0.00
2018-01-15T01:02:20.150Z,0.00
2018-01-15T01:03:51.969Z,0.00
2018-01-15T01:05:23.788Z,0.00
2018-01-15T01:06:55.605Z,0.00
2018-01-15T01:08:27.424Z,0.00
2018-01-15T01:09:59.242Z,0.00
2018-01-15T01:11:31.058Z,0.00
2018-01-15T01:13:02.877Z,0.00
2018-01-15T01:14:34.996Z,0.00
2018-01-15T01:16:06.513Z,0.00
2018-01-15T01:17:38.330Z,0.00
2018-01-15T01:19:10.148Z,0.00
2018-01-15T01:20:41.970Z,0.00
2018-01-15T01:22:13.784Z,0.00
2018-01-15T01:23:45.602Z,0.00
2018-01-15T01:25:17.421Z,0.00
2018-01-15T01:26:49.238Z,0.00
2018-01-15T01:28:21.055Z,0.00
2018-01-15T01:29:52.873Z,0.00
2018-01-15T01:31:24.691Z,0.00
2018-01-15T01:32:56.610Z,0.00
2018-01-15T01:34:28.327Z,0.00
2018-01-15T01:36:00.146Z,0.00
2018-01-15T01:37:31.963Z,0.00
2018-01-15T01:39:03.779Z,0.00
2018-01-15T01:40:35.598Z,0.00
2018-01-15T01:42:07.416Z,0.00
2018-01-15T01:43:39.285Z,0.00
2018-01-15T01:45:11.049Z,0.00
2018-01-15T01:46:42.866Z,0.00
2018-01-15T01:48:14.684Z,0.00
2018-01-15T01:49:46.502Z,0.00
2018-01-15T01:51:18.419Z,0.00
2018-01-15T01:52:50.138Z,0.00
2018-01-15T01:54:21.954Z,0.00
2018-01-15T01:55:53.771Z,0.00
2018-01-15T01:57:25.588Z,0.00
2018-01-15T01:58:57.406Z,0.00
2018-01-15T02:00:29.223Z,0.00
2018-01-15T02:02:01.040Z,0.00
2018-01-15T02:03:32.858Z,0.00
2018-01-15T02:05:04.675Z,0.00
2018-01-15T02:06:36.494Z,0.00
2018-01-15T02:08:08.309Z,0.00
2018-01-15T02:09:40.227Z,0.00
2018-01-15T02:11:11.944Z,0.00
2018-01-15T02:12:43.763Z,0.00
2018-01-15T02:14:15.579Z,0.00
2018-01-15T02:15:47.396Z,0.00
2018-01-15T02:17:19.212Z,0.00
2018-01-15T02:18:51.030Z,0.00
2018-01-15T02:20:22.848Z,0.00
2018-01-15T02:21:54.664Z,0.00
2018-01-15T02:23:26.481Z,0.00
2018-01-15T02:24:58.298Z,0.00
2018-01-15T02:26:30.116Z,0.00
2018-01-15T02:28:02.033Z,0.00
2018-01-15T02:29:33.749Z,0.00
2018-01-15T02:31:05.567Z,0.00
2018-01-15T02:32:37.383Z,0.00
2018-01-15T02:34:09.451Z,0.00
2018-01-15T02:35:41.018Z,0.00
2018-01-15T02:37:12.835Z,0.00
2018-01-15T02:38:44.651Z,0.00
2018-01-15T02:40:16.468Z,0.00
2018-01-15T02:41:48.285Z,0.00
2018-01-15T02:43:20.102Z,0.00
2018-01-15T02:44:51.919Z,0.00
2018-01-15T02:46:23.837Z,0.00
2018-01-15T02:47:55.553Z,0.00
2018-01-15T02:49:27.371Z,0.00
2018-01-15T02:50:59.188Z,0.00
2018-01-15T02:52:31.004Z,0.00
2018-01-15T02:54:02.822Z,0.00
2018-01-15T02:55:34.638Z,0.00
2018-01-15T02:57:06.454Z,0.00
2018-01-15T02:58:38.272Z,0.00
2018-01-15T03:00:10.089Z,0.00
2018-01-15T03:01:41.906Z,0.00
2018-01-15T03:03:13.722Z,0.00
2018-01-15T03:04:45.892Z,0.00
2018-01-15T03:06:17.356Z,0.00
2018-01-15T03:07:49.173Z,0.00
2018-01-15T03:09:20.990Z,0.00
2018-01-15T03:10:52.806Z,0.00
2018-01-15T03:12:24.623Z,0.00
2018-01-15T03:13:56.440Z,0.00
2018-01-15T03:15:28.257Z,0.00
2018-01-15T03:17:00.075Z,0.00
2018-01-15T03:18:31.892Z,0.00
2018-01-15T03:20:03.709Z,0.00
2018-01-15T03:21:35.525Z,0.00
2018-01-15T03:23:07.443Z,0.00
2018-01-15T03:24:39.160Z,0.00
2018-01-15T03:26:10.977Z,0.00
2018-01-15T03:27:42.794Z,0.00
2018-01-15T03:29:14.761Z,0.00
2018-01-15T03:30:46.429Z,0.00
2018-01-15T03:32:18.245Z,0.00
2018-01-15T03:33:50.063Z,0.00
2018-01-15T03:35:22.130Z,0.00
2018-01-15T03:36:53.697Z,0.00
2018-01-15T03:38:25.514Z,0.00
2018-01-15T03:39:57.331Z,0.00
2018-01-15T03:41:29.249Z,0.00
2018-01-15T03:43:00.967Z,0.00
2018-01-15T03:44:32.783Z,0.00
2018-01-15T03:46:04.599Z,0.00
2018-01-15T03:47:36.418Z,0.00
2018-01-15T03:49:08.234Z,0.00
2018-01-15T03:50:40.051Z,0.00
2018-01-15T03:52:11.869Z,0.00
2018-01-15T03:53:43.685Z,0.00
2018-01-15T03:55:15.503Z,0.00
2018-01-15T03:56:47.326Z,0.00
2018-01-15T03:58:19.137Z,0.00
2018-01-15T03:59:51.055Z,0.00
2018-01-15T04:01:22.776Z,0.00
2018-01-15T04:02:54.589Z,0.00
2018-01-15T04:04:26.405Z,0.00
2018-01-15T04:05:58.473Z,0.00
2018-01-15T04:07:30.040Z,0.00
2018-01-15T04:09:01.858Z,0.00
2018-01-15T04:10:33.674Z,0.00
2018-01-15T04:12:05.491Z,0.00
2018-01-15T04:13:37.309Z,0.00
2018-01-15T04:15:09.126Z,0.00
2018-01-15T04:16:40.943Z,0.00
2018-01-15T04:18:12.860Z,0.00
2018-01-15T04:19:44.579Z,0.00
2018-01-15T04:21:16.394Z,0.00
2018-01-15T04:22:48.212Z,0.00
2018-01-15T04:24:20.029Z,0.00
2018-01-15T04:25:51.846Z,0.00
2018-01-15T04:27:23.663Z,0.00
2018-01-15T04:28:55.480Z,0.00
2018-01-15T04:30:27.298Z,0.00
2018-01-15T04:31:59.115Z,0.00
2018-01-15T04:33:30.933Z,0.00
2018-01-15T04:35:02.751Z,0.00
2018-01-15T04:36:34.919Z,0.00
2018-01-15T04:38:06.385Z,0.00
2018-01-15T04:39:38.201Z,0.00
2018-01-15T04:41:10.020Z,0.00
2018-01-15T04:42:41.836Z,0.00
2018-01-15T04:44:13.654Z,0.00
2018-01-15T04:45:45.470Z,0.00
2018-01-15T04:47:17.288Z,0.00
2018-01-15T04:48:49.105Z,0.00
2018-01-15T04:50:20.922Z,0.00
2018-01-15T04:51:52.740Z,0.00
2018-01-15T04:53:24.557Z,0.00
2018-01-15T04:54:56.475Z,0.00
2018-01-15T04:56:28.192Z,0.00
2018-01-15T04:58:00.010Z,0.00
2018-01-15T04:59:31.827Z,0.00
2018-01-15T05:01:03.793Z,0.00
2018-01-15T05:02:35.462Z,0.00
2018-01-15T05:04:07.278Z,0.00
2018-01-15T05:05:39.096Z,0.00
2018-01-15T05:07:11.164Z,0.00
2018-01-15T05:08:42.731Z,0.00
2018-01-15T05:10:14.548Z,0.00
2018-01-15T05:11:46.366Z,0.00
2018-01-15T05:13:18.283Z,0.00
2018-01-15T05:14:50.000Z,0.00
2018-01-15T05:16:21.819Z,0.00
2018-01-15T05:17:53.635Z,0.00
2018-01-15T05:19:25.453Z,0.00
2018-01-15T05:20:57.271Z,0.00
2018-01-15T05:22:29.088Z,0.00
2018-01-15T05:24:00.907Z,0.00
2018-01-15T05:25:32.724Z,0.00
2018-01-15T05:27:04.542Z,0.00
2018-01-15T05:28:36.360Z,0.00
2018-01-15T05:30:08.178Z,0.00
2018-01-15T05:31:40.345Z,0.00
2018-01-15T05:33:11.812Z,0.00
2018-01-15T05:34:43.629Z,0.00
2018-01-15T05:36:15.450Z,0.00
2018-01-15T05:37:47.516Z,0.00
2018-01-15T05:39:19.083Z,0.00
2018-01-15T05:40:50.900Z,0.00
2018-01-15T05:42:22.718Z,0.00
2018-01-15T05:43:54.577Z,0.00
2018-01-15T05:45:26.411Z,0.00
2018-01-15T05:46:58.171Z,0.00
2018-01-15T05:48:29.988Z,0.00
2018-01-15T05:50:02.107Z,0.00
2018-01-15T05:51:33.624Z,0.00
2018-01-15T05:53:05.443Z,0.00
2018-01-15T05:54:37.259Z,0.00
2018-01-15T05:56:09.077Z,0.00
2018-01-15T05:57:40.899Z,0.00
2018-01-15T05:59:12.713Z,0.00
2018-01-15T06:00:44.531Z,0.00
2018-01-15T06:02:16.348Z,0.00
2018-01-15T06:03:48.166Z,0.00
2018-01-15T06:05:19.984Z,0.00
2018-01-15T06:06:51.800Z,0.00
2018-01-15T06:08:23.969Z,0.00
2018-01-15T06:09:55.437Z,0.00
2018-01-15T06:11:27.253Z,0.00
2018-01-15T06:12:59.072Z,0.00
2018-01-15T06:14:30.889Z,0.00
2018-01-15T06:16:02.711Z,0.00
2018-01-15T06:17:34.524Z,0.00
2018-01-15T06:19:06.342Z,0.00
2018-01-15T06:20:38.161Z,0.00
2018-01-15T06:22:09.976Z,0.00
2018-01-15T06:23:41.819Z,0.00
2018-01-15T06:25:13.611Z,0.00
2018-01-15T06:26:45.529Z,0.00
2018-01-15T06:28:17.246Z,0.00
2018-01-15T06:29:49.064Z,0.00
2018-01-15T06:31:20.882Z,0.00
2018-01-15T06:32:52.699Z,0.00
2018-01-15T06:34:24.517Z,0.00
2018-01-15T06:35:56.338Z,0.00
2018-01-15T06:37:28.153Z,0.00
2018-01-15T06:39:00.220Z,0.00
2018-01-15T06:40:31.788Z,0.00
2018-01-15T06:42:03.605Z,0.00
2018-01-15T06:43:35.422Z,0.00
2018-01-15T06:45:07.339Z,0.00
2018-01-15T06:46:39.058Z,0.00
2018-01-15T06:48:10.875Z,0.00
2018-01-15T06:49:42.692Z,0.00
2018-01-15T06:51:14.516Z,0.00
2018-01-15T06:52:46.327Z,0.00
2018-01-15T06:54:18.146Z,0.00
2018-01-15T06:55:49.962Z,0.00
2018-01-15T06:57:21.781Z,0.00
2018-01-15T06:58:53.599Z,0.00
2018-01-15T07:00:25.415Z,0.00
2018-01-15T07:01:57.235Z,0.00
2018-01-15T07:03:29.603Z,0.00
2018-01-15T07:05:00.869Z,0.00
2018-01-15T07:06:32.690Z,0.00
2018-01-15T07:08:04.508Z,0.00
2018-01-15T07:09:36.572Z,0.00
2018-01-15T07:11:08.140Z,0.00
2018-01-15T07:12:39.959Z,0.00
2018-01-15T07:14:11.776Z,0.00
2018-01-15T07:15:43.594Z,0.00
2018-01-15T07:17:15.461Z,0.00
2018-01-15T07:18:47.231Z,0.00
2018-01-15T07:20:19.048Z,0.00
2018-01-15T07:21:50.967Z,0.00
2018-01-15T07:23:22.716Z,0.00
2018-01-15T07:24:54.502Z,0.00
2018-01-15T07:26:26.321Z,0.00
2018-01-15T07:27:58.138Z,0.00
2018-01-15T07:29:29.958Z,0.00
2018-01-15T07:31:01.776Z,0.00
2018-01-15T07:32:33.592Z,0.00
2018-01-15T07:34:05.612Z,0.00
2018-01-15T07:35:37.230Z,0.00
2018-01-15T07:37:09.047Z,0.00
2018-01-15T07:38:40.864Z,0.00
2018-01-15T07:40:13.130Z,0.00
2018-01-15T07:41:44.674Z,0.00
2018-01-15T07:43:16.416Z,0.00
2018-01-15T07:44:48.135Z,0.00
2018-01-15T07:46:19.952Z,0.00
2018-01-15T07:47:51.866Z,0.00
2018-01-15T07:49:23.691Z,0.00
2018-01-15T07:50:55.405Z,0.00
2018-01-15T07:52:27.223Z,0.00
2018-01-15T07:53:59.080Z,0.00
2018-01-15T07:55:30.877Z,0.00
2018-01-15T07:57:02.675Z,0.00
2018-01-15T07:58:35.672Z,0.00
2018-01-15T08:00:06.403Z,0.00
2018-01-15T08:01:38.128Z,0.00
2018-01-15T08:03:10.002Z,0.00
2018-01-15T08:04:41.854Z,0.00
2018-01-15T08:06:13.580Z,0.00
2018-01-15T08:07:45.397Z,4.00
2018-01-15T08:09:17.284Z,0.00
2018-01-15T08:10:49.092Z,4.00
2018-01-15T08:12:20.850Z,4.00
2018-01-15T08:13:52.668Z,4.00
2018-01-15T08:15:24.484Z,4.00
2018-01-15T08:16:56.402Z,8.00
2018-01-15T08:18:28.119Z,16.00
2018-01-15T08:19:59.963Z,20.00
2018-01-15T08:21:31.872Z,24.00
2018-01-15T08:23:03.615Z,44.00
2018-01-15T08:24:35.442Z,60.00
2018-01-15T08:26:07.208Z,88.00
2018-01-15T08:27:39.122Z,128.00
2018-01-15T08:29:10.986Z,168.00
2018-01-15T08:30:42.661Z,196.00
2018-01-15T08:32:14.477Z,172.00
2018-01-15T08:33:46.353Z,180.00
2018-01-15T08:35:19.160Z,260.00
2018-01-15T08:36:49.929Z,324.00
2018-01-15T08:38:21.787Z,316.00
2018-01-15T08:39:53.564Z,332.00
2018-01-15T08:41:25.381Z,408.00
2018-01-15T08:42:57.203Z,500.00
2018-01-15T08:44:29.088Z,584.00
2018-01-15T08:46:00.886Z,684.00
2018-01-15T08:47:32.651Z,788.00
2018-01-15T08:49:04.564Z,896.00
2018-01-15T08:50:36.428Z,1012.00
2018-01-15T08:52:08.105Z,1140.00
2018-01-15T08:53:40.026Z,1276.00
2018-01-15T08:55:11.776Z,1416.00
2018-01-15T08:56:43.735Z,1568.00
2018-01-15T08:58:15.375Z,1712.00
2018-01-15T08:59:47.201Z,1860.00
2018-01-15T09:01:19.091Z,2004.00
2018-01-15T09:02:51.068Z,2152.00
2018-01-15T09:04:22.686Z,2304.00
2018-01-15T09:05:54.514Z,2464.00
2018-01-15T09:07:26.281Z,2616.00
2018-01-15T09:08:58.231Z,2760.00
2018-01-15T09:10:29.932Z,2932.00
2018-01-15T09:12:01.838Z,3096.00
2018-01-15T09:13:33.647Z,3268.00
2018-01-15T09:15:05.455Z,3452.00
2018-01-15T09:16:37.187Z,3612.00
2018-01-15T09:18:09.004Z,3680.00
2018-01-15T09:19:40.824Z,3900.00
2018-01-15T09:21:12.641Z,4088.00
2018-01-15T09:22:44.459Z,4260.00
2018-01-15T09:24:16.286Z,4484.00
2018-01-15T09:25:48.168Z,4692.00
2018-01-15T09:27:19.913Z,4900.00
2018-01-15T09:28:51.781Z,5132.00
2018-01-15T09:30:23.649Z,5380.00
2018-01-15T09:31:55.367Z,5644.00
2018-01-15T09:33:27.219Z,5912.00
2018-01-15T09:34:59.003Z,6148.00
2018-01-15T09:36:30.921Z,6308.00
2018-01-15T09:38:02.639Z,6416.00
2018-01-15T09:39:34.456Z,6464.00
2018-01-15T09:41:06.274Z,6448.00
2018-01-15T09:42:38.093Z,6420.00
2018-01-15T09:44:09.915Z,6480.00
2018-01-15T09:45:41.732Z,6640.00
2018-01-15T09:47:13.548Z,6904.00
2018-01-15T09:48:45.466Z,7244.00
2018-01-15T09:50:17.184Z,7644.00
2018-01-15T09:51:49.007Z,8028.00
2018-01-15T09:53:20.821Z,8432.00
2018-01-15T09:54:52.639Z,8912.00
2018-01-15T09:56:24.458Z,9452.00
2018-01-15T09:57:56.275Z,10040.00
2018-01-15T09:59:28.094Z,10644.00
2018-01-15T10:00:59.913Z,11236.00
2018-01-15T10:02:31.757Z,11796.00
2018-01-15T10:04:03.553Z,12192.00
2018-01-15T10:05:35.373Z,12328.00
2018-01-15T10:07:07.424Z,12428.00
2018-01-15T10:08:39.008Z,12536.00
2018-01-15T10:10:10.830Z,12636.00
2018-01-15T10:11:42.708Z,12688.00
2018-01-15T10:13:14.516Z,12744.00
2018-01-15T10:14:46.285Z,12848.00
2018-01-15T10:16:18.105Z,13008.00
2018-01-15T10:17:49.931Z,13292.00
2018-01-15T10:19:21.743Z,13608.00
2018-01-15T10:20:53.566Z,13948.00
2018-01-15T10:22:25.385Z,14328.00
2018-01-15T10:23:57.499Z,14704.00
2018-01-15T10:25:29.322Z,15100.00
2018-01-15T10:27:00.842Z,15532.00
2018-01-15T10:28:32.661Z,15956.00
2018-01-15T10:30:04.540Z,16340.00
2018-01-15T10:31:36.306Z,16664.00
2018-01-15T10:33:08.160Z,16848.00
2018-01-15T10:34:39.941Z,16836.00
2018-01-15T10:36:11.761Z,16700.00
2018-01-15T10:37:43.584Z,16536.00
2018-01-15T10:39:15.403Z,16356.00
2018-01-15T10:40:47.222Z,16236.00
2018-01-15T10:42:19.043Z,16292.00
2018-01-15T10:43:50.964Z,16564.00
2018-01-15T10:45:22.686Z,16892.00
2018-01-15T10:46:54.708Z,17204.00
2018-01-15T10:48:26.332Z,17320.00
2018-01-15T10:49:58.186Z,17168.00
2018-01-15T10:51:29.970Z,17024.00
2018-01-15T10:53:01.803Z,16944.00
2018-01-15T10:54:33.608Z,16940.00
2018-01-15T10:56:05.431Z,16916.00
2018-01-15T10:57:37.250Z,16968.00
2018-01-15T10:59:09.086Z,16972.00
2018-01-15T11:00:40.891Z,16984.00
2018-01-15T11:02:12.862Z,17052.00
2018-01-15T11:03:44.613Z,17184.00
2018-01-15T11:05:16.605Z,17536.00
2018-01-15T11:06:48.394Z,17760.00
2018-01-15T11:08:20.091Z,18080.00
2018-01-15T11:09:51.829Z,18624.00
2018-01-15T11:11:23.637Z,19040.00
2018-01-15T11:12:56.747Z,19520.00
2018-01-15T11:14:27.657Z,19904.00
2018-01-15T11:15:59.148Z,20352.00
2018-01-15T11:17:30.922Z,20832.00
2018-01-15T11:19:02.741Z,21440.00
2018-01-15T11:20:34.726Z,22176.00
2018-01-15T11:22:06.383Z,22944.00
2018-01-15T11:23:38.242Z,23744.00
2018-01-15T11:25:10.038Z,24352.00
2018-01-15T11:26:41.850Z,24928.00
2018-01-15T11:28:13.672Z,25664.00
2018-01-15T11:29:45.489Z,26112.00
2018-01-15T11:31:17.841Z,26528.00
2018-01-15T11:32:49.216Z,27712.00
2018-01-15T11:34:20.951Z,28064.00
2018-01-15T11:35:53.044Z,27328.00
2018-01-15T11:37:24.594Z,28832.00
2018-01-15T11:38:56.641Z,29408.00
2018-01-15T11:40:28.478Z,30240.00
2018-01-15T11:42:00.059Z,30784.00
2018-01-15T11:43:31.931Z,30912.00
2018-01-15T11:45:03.703Z,29856.00
2018-01-15T11:46:35.557Z,29888.00
2018-01-15T11:48:07.348Z,30016.00
2018-01-15T11:49:39.171Z,30688.00
2018-01-15T11:51:10.990Z,31936.00
2018-01-15T11:52:42.883Z,33600.00
2018-01-15T11:54:14.656Z,34016.00
2018-01-15T11:55:46.457Z,34784.00
2018-01-15T11:57:18.430Z,35040.00
2018-01-15T11:58:50.182Z,33504.00
2018-01-15T12:00:21.930Z,36000.00
2018-01-15T12:01:53.766Z,33344.00
2018-01-15T12:03:25.771Z,32384.00
2018-01-15T12:04:57.392Z,31648.00
2018-01-15T12:06:29.241Z,29568.00
2018-01-15T12:08:01.040Z,27680.00
2018-01-15T12:09:33.534Z,28800.00
2018-01-15T12:11:04.682Z,26016.00
2018-01-15T12:12:36.531Z,24288.00
2018-01-15T12:14:08.817Z,28352.00
2018-01-15T12:15:40.249Z,27904.00
2018-01-15T12:17:11.973Z,25632.00
2018-01-15T12:18:43.840Z,28672.00
2018-01-15T12:20:15.665Z,31968.00
2018-01-15T12:21:47.442Z,36480.00
2018-01-15T12:23:19.259Z,35232.00
2018-01-15T12:24:51.152Z,38304.00
2018-01-15T12:26:22.904Z,48704.00
2018-01-15T12:27:54.797Z,37984.00
2018-01-15T12:29:26.564Z,42144.00
2018-01-15T12:30:58.855Z,44096.00
2018-01-15T12:32:30.196Z,48512.00
2018-01-15T12:34:03.164Z,46784.00
2018-01-15T12:35:33.905Z,49792.00
2018-01-15T12:37:06.379Z,46880.00
2018-01-15T12:38:38.768Z,46848.00
2018-01-15T12:40:09.310Z,46496.00
2018-01-15T12:41:41.133Z,46976.00
2018-01-15T12:43:13.249Z,47456.00
2018-01-15T12:44:44.785Z,47072.00
2018-01-15T12:46:16.604Z,48448.00
2018-01-15T12:47:48.509Z,45280.00
2018-01-15T12:49:20.257Z,44192.00
2018-01-15T12:50:52.142Z,45728.00
2018-01-15T12:52:23.999Z,50912.00
2018-01-15T12:53:55.723Z,45792.00
2018-01-15T12:55:27.549Z,42528.00
2018-01-15T12:56:59.372Z,40768.00
2018-01-15T12:58:31.195Z,38912.00
2018-01-15T13:00:03.020Z,38560.00
2018-01-15T13:01:34.843Z,37920.00
2018-01-15T13:03:08.172Z,38624.00
2018-01-15T13:04:38.494Z,38720.00
2018-01-15T13:06:10.314Z,39584.00
2018-01-15T13:07:42.252Z,40640.00
2018-01-15T13:09:13.973Z,41664.00
2018-01-15T13:10:47.558Z,42752.00
2018-01-15T13:12:17.714Z,44512.00
2018-01-15T13:13:49.538Z,46560.00
2018-01-15T13:15:22.138Z,49056.00
2018-01-15T13:16:53.171Z,51008.00
2018-01-15T13:18:24.903Z,52896.00
2018-01-15T13:19:56.865Z,51104.00
2018-01-15T13:21:28.569Z,50432.00
2018-01-15T13:23:00.417Z,49952.00
2018-01-15T13:24:32.230Z,50944.00
2018-01-15T13:26:04.021Z,49312.00
2018-01-15T13:27:35.899Z,48576.00
2018-01-15T13:29:07.925Z,47520.00
2018-01-15T13:30:39.494Z,46816.00
2018-01-15T13:32:11.319Z,46080.00
2018-01-15T13:33:43.174Z,45600.00
2018-01-15T13:35:14.966Z,45248.00
2018-01-15T13:36:46.797Z,45504.00
2018-01-15T13:38:19.260Z,46528.00
2018-01-15T13:39:50.438Z,47264.00
2018-01-15T13:41:22.316Z,47584.00
2018-01-15T13:42:54.087Z,48096.00
2018-01-15T13:44:25.911Z,48576.00
2018-01-15T13:45:59.142Z,48960.00
2018-01-15T13:47:30.985Z,49344.00
2018-01-15T13:49:03.108Z,49952.00
2018-01-15T13:50:33.356Z,50848.00
2018-01-15T13:52:05.996Z,51872.00
2018-01-15T13:53:36.897Z,52480.00
2018-01-15T13:55:08.949Z,52544.00
2018-01-15T13:56:40.505Z,52224.00
2018-01-15T13:58:12.381Z,52064.00
2018-01-15T13:59:44.163Z,51808.00
2018-01-15T14:01:15.990Z,51488.00
2018-01-15T14:02:47.813Z,51520.00
2018-01-15T14:04:19.741Z,51904.00
2018-01-15T14:05:52.248Z,52416.00
2018-01-15T14:07:23.284Z,52800.00
2018-01-15T14:08:56.673Z,53344.00
2018-01-15T14:10:27.942Z,53952.00
2018-01-15T14:11:59.258Z,55040.00
2018-01-15T14:13:31.136Z,56096.00
2018-01-15T14:15:02.497Z,56448.00
2018-01-15T14:16:34.363Z,57152.00
2018-01-15T14:18:07.584Z,58144.00
2018-01-15T14:19:37.992Z,58976.00
2018-01-15T14:21:10.768Z,58048.00
2018-01-15T14:22:41.691Z,56672.00
2018-01-15T14:24:13.804Z,55936.00
2018-01-15T14:25:45.197Z,55136.00
2018-01-15T14:27:17.335Z,54432.00
2018-01-15T14:28:49.394Z,53664.00
2018-01-15T14:30:21.621Z,53120.00
2018-01-15T14:31:53.021Z,53248.00
2018-01-15T14:33:26.208Z,54176.00
2018-01-15T14:34:56.899Z,54112.00
2018-01-15T14:36:28.017Z,53376.00
2018-01-15T14:38:00.137Z,52192.00
2018-01-15T14:39:32.467Z,51424.00
2018-01-15T14:41:04.972Z,51104.00
2018-01-15T14:42:35.436Z,48288.00
2018-01-15T14:44:07.208Z,51968.00
2018-01-15T14:45:39.157Z,52448.00
2018-01-15T14:47:10.979Z,53184.00
2018-01-15T14:48:42.719Z,54304.00
2018-01-15T14:50:14.388Z,56352.00
2018-01-15T14:51:46.195Z,61824.00
2018-01-15T14:53:18.020Z,63680.00
2018-01-15T14:54:49.851Z,66272.00
2018-01-15T14:56:21.676Z,79840.00
2018-01-15T14:57:53.497Z,83072.00
2018-01-15T14:59:25.352Z,76480.00
2018-01-15T15:00:57.247Z,78976.00
2018-01-15T15:02:28.972Z,65856.00
2018-01-15T15:04:00.797Z,64896.00
2018-01-15T15:05:32.623Z,65600.00
2018-01-15T15:07:04.500Z,68576.00
2018-01-15T15:08:36.275Z,72000.00
2018-01-15T15:10:08.101Z,83616.00
2018-01-15T15:11:39.998Z,106176.00
2018-01-15T15:13:11.794Z,124704.00
2018-01-15T15:14:43.581Z,96256.00
2018-01-15T15:16:15.407Z,76800.00
2018-01-15T15:17:47.236Z,72416.00
2018-01-15T15:19:19.162Z,76096.00
2018-01-15T15:20:50.889Z,74880.00
2018-01-15T15:22:22.719Z,69376.00
2018-01-15T15:23:54.547Z,67680.00
2018-01-15T15:25:26.451Z,65728.00
2018-01-15T15:26:58.218Z,65152.00
2018-01-15T15:28:30.024Z,65376.00
2018-01-15T15:30:01.902Z,66592.00
2018-01-15T15:31:33.683Z,69120.00
2018-01-15T15:33:05.503Z,72352.00
2018-01-15T15:34:37.380Z,74304.00
2018-01-15T15:36:09.156Z,80544.00
2018-01-15T15:37:41.083Z,104896.00
2018-01-15T15:39:12.809Z,76192.00
2018-01-15T15:40:44.637Z,99328.00
2018-01-15T15:42:16.466Z,112576.00
2018-01-15T15:43:48.288Z,78592.00
2018-01-15T15:45:20.116Z,64032.00
2018-01-15T15:46:51.943Z,57280.00
2018-01-15T15:48:23.771Z,49696.00
2018-01-15T15:49:55.605Z,52544.00
2018-01-15T15:51:27.424Z,54752.00
2018-01-15T15:52:59.250Z,59840.00
2018-01-15T15:54:31.075Z,59936.00
2018-01-15T15:56:03.001Z,63872.00
2018-01-15T15:57:34.726Z,106656.00
2018-01-15T15:59:06.556Z,92384.00
2018-01-15T16:00:38.380Z,110880.00
2018-01-15T16:02:10.259Z,102816.00
2018-01-15T16:03:42.096Z,82208.00
2018-01-15T16:05:13.902Z,63520.00
2018-01-15T16:06:45.736Z,101984.00
2018-01-15T16:08:17.515Z,105408.00
2018-01-15T16:09:49.370Z,108576.00
2018-01-15T16:11:21.222Z,108928.00
2018-01-15T16:12:52.995Z,70752.00
2018-01-15T16:14:24.977Z,76192.00
2018-01-15T16:15:56.651Z,82016.00
2018-01-15T16:17:28.480Z,52416.00
2018-01-15T16:19:00.342Z,89472.00
2018-01-15T16:20:32.176Z,76768.00
2018-01-15T16:22:03.961Z,51360.00
2018-01-15T16:23:35.813Z,88160.00
2018-01-15T16:25:07.620Z,82048.00
2018-01-15T16:26:39.904Z,99968.00
2018-01-15T16:28:11.725Z,86144.00
2018-01-15T16:29:43.273Z,128032.00
2018-01-15T16:31:15.685Z,166688.00
2018-01-15T16:32:47.359Z,174016.00
2018-01-15T16:34:18.634Z,139328.00
2018-01-15T16:35:50.413Z,158176.00
2018-01-15T16:37:22.243Z,166528.00
2018-01-15T16:38:54.317Z,164288.00
2018-01-15T16:40:25.941Z,164032.00
2018-01-15T16:41:57.736Z,159520.00
2018-01-15T16:43:29.569Z,145120.00
2018-01-15T16:45:01.402Z,132928.00
2018-01-15T16:46:33.246Z,137152.00
2018-01-15T16:48:05.566Z,127616.00
2018-01-15T16:49:36.906Z,112992.00
2018-01-15T16:51:10.199Z,40352.00
2018-01-15T16:52:41.271Z,124544.00
2018-01-15T16:54:13.138Z,117728.00
2018-01-15T16:55:44.357Z,96032.00
2018-01-15T16:57:16.905Z,117248.00
2018-01-15T16:58:47.906Z,106688.00
2018-01-15T17:00:19.844Z,125536.00
2018-01-15T17:01:51.577Z,113568.00
2018-01-15T17:03:23.443Z,129536.00
2018-01-15T17:04:55.247Z,148800.00
2018-01-15T17:06:27.059Z,145792.00
2018-01-15T17:07:58.885Z,156352.00
2018-01-15T17:09:30.882Z,133600.00
2018-01-15T17:11:03.299Z,132736.00
2018-01-15T17:12:35.259Z,131872.00
2018-01-15T17:14:06.535Z,113088.00
2018-01-15T17:15:38.589Z,133664.00
2018-01-15T17:17:09.869Z,124896.00
2018-01-15T17:18:41.697Z,124896.00
2018-01-15T17:20:13.833Z,128896.00
2018-01-15T17:21:46.317Z,133056.00
2018-01-15T17:23:17.281Z,134240.00
2018-01-15T17:24:49.098Z,125984.00
2018-01-15T17:26:21.360Z,131488.00
2018-01-15T17:27:52.839Z,34112.00
2018-01-15T17:29:24.542Z,132672.00
2018-01-15T17:30:57.182Z,130304.00
2018-01-15T17:32:29.593Z,131232.00
2018-01-15T17:34:00.201Z,132064.00
2018-01-15T17:35:31.881Z,56096.00
2018-01-15T17:37:03.736Z,23936.00
2018-01-15T17:38:35.723Z,29664.00
2018-01-15T17:40:07.569Z,137600.00
2018-01-15T17:41:39.148Z,132480.00
2018-01-15T17:43:11.083Z,127392.00
2018-01-15T17:44:43.031Z,125952.00
2018-01-15T17:46:15.097Z,124672.00
2018-01-15T17:47:47.243Z,131520.00
2018-01-15T17:49:18.924Z,131424.00
2018-01-15T17:50:50.348Z,143648.00
2018-01-15T17:52:22.206Z,152064.00
2018-01-15T17:53:53.902Z,134400.00
2018-01-15T17:55:25.815Z,146240.00
2018-01-15T17:56:57.523Z,159168.00
2018-01-15T17:58:29.320Z,129440.00
2018-01-15T18:00:01.098Z,113600.00
2018-01-15T18:01:32.931Z,118976.00
2018-01-15T18:03:04.757Z,115488.00
2018-01-15T18:04:36.686Z,117856.00
2018-01-15T18:06:08.678Z,115776.00
2018-01-15T18:07:40.266Z,111072.00
2018-01-15T18:09:12.174Z,111200.00
2018-01-15T18:10:43.902Z,107360.00
2018-01-15T18:12:15.753Z,114016.00
2018-01-15T18:13:47.566Z,109120.00
2018-01-15T18:15:19.471Z,111328.00
2018-01-15T18:16:51.217Z,109280.00
2018-01-15T18:18:23.047Z,104768.00
2018-01-15T18:19:54.874Z,106304.00
2018-01-15T18:21:26.708Z,111648.00
2018-01-15T18:22:58.695Z,112224.00
2018-01-15T18:24:30.362Z,105824.00
2018-01-15T18:26:02.377Z,107232.00
2018-01-15T18:27:34.073Z,107072.00
2018-01-15T18:29:05.847Z,105120.00
2018-01-15T18:30:37.676Z,104480.00
2018-01-15T18:32:09.543Z,100512.00
2018-01-15T18:33:41.356Z,97376.00
2018-01-15T18:35:13.183Z,102784.00
2018-01-15T18:36:44.990Z,99552.00
2018-01-15T18:38:16.824Z,95840.00
2018-01-15T18:39:48.859Z,92192.00
2018-01-15T18:41:20.575Z,92160.00
2018-01-15T18:42:52.355Z,95072.00
2018-01-15T18:44:24.131Z,92384.00
2018-01-15T18:45:55.960Z,92352.00
2018-01-15T18:47:27.945Z,92864.00
2018-01-15T18:48:59.817Z,92640.00
2018-01-15T18:50:31.503Z,89696.00
2018-01-15T18:52:03.316Z,89184.00
2018-01-15T18:53:35.105Z,84416.00
2018-01-15T18:55:06.928Z,80960.00
2018-01-15T18:56:38.757Z,81696.00